Tiempo atmosférico en la estación meteorológica de Cazalla De La Sierra, Sevilla (550 m.)

Fecha
DESCASC
Temp. máxima en grados centígrados (hora)
DESCASC
Temp. mínima en grados centígrados (hora)
DESCASC
Temp. media en grados centígrados
DESCASC
Racha de viento máxima en m/sg (hora)
DESCASC
Velocidad máxima media en intervalos de 10 minutos(hora)
DESCASC
Precipitaciones diarias en mm
DESCASC
Precipitaciones de 00:00 a 06:00 en mm
DESCASC
Precipitaciones de 06:00 a 12:00 en mm
DESCASC
Precipitaciones de 12:00 a 18:00 en mm
DESCASC
Precipitaciones de 18:00 a 24:00 en mm
DESCASC
10-12-2017 13.2 (17:30) 5.5 (09:10) 9.3 14.44 (22:50) 6.67 (22:50) 0 0 0 0 0
09-12-2017 16.8 (15:00) 9.3 (21:30) 13 6.67 (13:40) 4.17 (17:00) 0 0 0 0 0
08-12-2017 18 (15:20) 1 (01:10) 9.5 8.06 (17:10) 3.89 (18:00) 0 0 0 0 0
07-12-2017 16.8 (15:30) -1.7 (-00:0) 7.5 3.61 (13:50) 1.67 (00:30) 0 0 0 0 0
06-12-2017 15.4 (16:00) -1.2 (-00:0) 7.1 5 (11:40) 2.78 (10:50) 0 0 0 0 0
05-12-2017 14.7 (15:30) -2 (-00:0) 6.3 4.44 (12:00) 2.78 (12:00) 0 0 0 0 0
04-12-2017 14.2 (15:00) -0.2 (00:00) 7 6.67 (10:20) 4.17 (10:40) 0 0 0 0 0
03-12-2017 10 (16:00) -2.5 (-00:0) 3.8 10.56 (12:50) 5.56 (12:30) 0 0 0 0 0
02-12-2017 10.8 (15:10) -0.2 (00:00) 5.3 8.61 (12:10) 5 (08:40) 0 0 0 0 0
01-12-2017 12.2 (15:10) -1.9 (-00:0) 5.1 10.28 (16:20) 5.28 (13:10) 0 0 0 0 0
30-11-2017 11.4 (15:10) 2.9 (00:00) 7.1 10.83 (12:30) 5.28 (13:00) 0 0 0 0 0
29-11-2017 14.9 (16:00) 6.6 (00:00) 10.7 7.78 (15:20) 5 (15:20) 2.3 2 0.3 0 0
28-11-2017 16.3 (14:50) 9.6 (00:00) 12.9 6.11 (17:10) 2.5 (17:10) 5.7 0.1 0.3 0 5.3
27-11-2017 17.8 (14:40) 7 (00:00) 12.4 4.44 (00:40) 2.5 (10:20) 0 0 0 0 0
26-11-2017 20.8 (15:20) 8.5 (00:00) 14.6 5.28 (10:10) 2.5 (10:20) 0 0 0 0 0
25-11-2017 19 (15:00) 7 (00:00) 13 6.11 (10:00) 3.33 (14:50) 0 0 0 0 0
24-11-2017 21.6 (14:30) 5.2 (00:00) 13.4 6.94 (13:50) 3.06 (13:50) 0 0 0 0 0
23-11-2017 19.9 (15:00) 6 (00:00) 12.9 5.83 (13:20) 2.78 (15:30) 0 0 0 0 0
22-11-2017 20.3 (13:10) 2.7 (00:00) 11.5 6.39 (15:00) 3.33 (15:00) 0 0 0 0 0
21-11-2017 23.1 (16:20) 4 (00:00) 13.6 3.89 (13:10) 2.22 (15:20) 0 0 0 0 0
20-11-2017 22.9 (13:40) 3.8 (00:00) 13.3 3.89 (11:30) 2.22 (07:50) 0 0 0 0 0
19-11-2017 22.3 (14:10) 3.9 (00:00) 13.1 5.28 (14:40) 2.22 (11:40) 0 0 0 0 0
18-11-2017 21.7 (15:10) 3.2 (00:00) 12.5 5 (13:10) 3.06 (13:10) 0 0 0 0 0
17-11-2017 22.3 (14:30) 3.4 (00:00) 12.8 4.17 (14:50) 2.5 (15:00) 0 0 0 0 0
16-11-2017 21.6 (15:30) 3.1 (00:00) 12.4 4.17 (15:20) 2.22 (14:50) 0 0 0 0 0
15-11-2017 19.5 (16:30) 2.6 (00:00) 11 4.44 (12:20) 2.22 (16:40) 0 0 0 0 0

Gráficas

Temp. máximas Temp. mínimas Temp. medias Precipitaciones Rachas de viento máximas Velocidades máximas media en intervalos de 10 minutos

Datos horarios

Fecha y hora oficial Temperatura (ºC) Velocidad del viento (km/h) Dirección del viento Racha (km/h) Dirección de racha Precipitación (mm) Presión (hPa) Tendencia (hPa) Humedad (%)
2017-12-14 23:00:00 9.5 5 Noroeste 9 Noroeste 0 956.3 -0.8 92
2017-12-14 22:00:00 9.5 4 Oeste 9 Noroeste 0 956.7 -0.5 93
2017-12-14 21:00:00 9.4 6 Noroeste 10 Noroeste 0.1 957 -0.7 93
2017-12-14 20:00:00 9.6 0 Calma 8 Noroeste 0 957.1 -0.4 92
2017-12-14 19:00:00 9.4 2 Noroeste 8 Noroeste 0.1 957.2 -0.1 92
2017-12-14 18:00:00 9.4 6 Noroeste 14 Sur 0 957.7 -0.3 89
2017-12-14 17:00:00 9.9 6 Sudoeste 18 Oeste 0 957.5 -1.3 77
2017-12-14 16:00:00 11.4 6 Oeste 20 Oeste 0 957.3 -2.5 72
2017-12-14 15:00:00 12 10 Oeste 17 Oeste 0 958 -2.8 70
2017-12-14 14:00:00 12.2 6 Oeste 14 Oeste 0 958.8 -2.4 68
2017-12-14 13:00:00 11.5 6 Sudoeste 12 Oeste 0 959.8 -1.3 70
2017-12-14 12:00:00 10.1 5 Sudoeste 9 Sudoeste 0 960.8 0 81
2017-12-14 11:00:00 8.8 0 Calma 4 Oeste 0 961.2 0.5 92
2017-12-14 10:00:00 8.2 0 Calma 5 Este 0 961.1 0.4 91
2017-12-14 09:00:00 7.1 0 Calma 3 Este 0 960.8 0.1 88
2017-12-14 08:00:00 6.5 0 Calma 7 Noroeste 0 960.7 -0.1 85
2017-12-14 07:00:00 7.9 2 Noroeste 15 Noroeste 0 960.7 -0.7 82
2017-12-14 06:00:00 5.7 0 Calma 6 Sudeste 0 960.7 -0.9 89
2017-12-14 05:00:00 3.6 3 Sudeste 6 Este 0 960.8 -0.8 90
2017-12-14 04:00:00 3.6 3 Sudeste 9 Nordeste 0 961.4 -0.4 88
2017-12-14 03:00:00 4.1 5 Este 7 Este 0 961.6 -0.8 83
2017-12-14 02:00:00 2.5 0 Calma 8 Este 0 961.6 -1 81
2017-12-14 01:00:00 2.8 5 Este 9 Este 0 961.8 -0.7 75
2017-12-14 00:00:00 2.9 4 Sudeste 8 Este 0 962.4 -0.2 77
2017-12-13 23:00:00 3.4 5 Este 8 Este 0 962.6 0.2 75
2017-12-13 22:00:00 3.4 5 Este 8 Este 0 962.5 0.4 74
2017-12-13 21:00:00 3.7 4 Sudeste 8 Este 0 962.6 0.7 74
2017-12-13 20:00:00 4.2 4 Sudeste 6 Sudeste 0 962.4 0.6 75
2017-12-13 19:00:00 5.1 0 Calma 6 Este 0 962.1 0.4 63
2017-12-13 18:00:00 9.3 3 Oeste 12 Oeste 0 961.9 -0.2 34
2017-12-13 17:00:00 13.1 4 Oeste 13 Oeste 0 961.8 -0.4 24
2017-12-13 16:00:00 14 6 Sur 12 Sur 0 961.7 -1.3 21
2017-12-13 15:00:00 13.8 4 Oeste 13 Noroeste 0 962.1 -1.8 22
2017-12-13 14:00:00 13.6 2 Este 7 Sudoeste 0 962.2 -1.3 22
2017-12-13 13:00:00 12.8 4 Sur 9 Sur 0 963 0.8 23
2017-12-13 12:00:00 11 5 Sudeste 11 Este 0 963.9 1.6 33
2017-12-13 11:00:00 8.5 7 Este 10 Este 0 963.5 1.6 43
2017-12-13 10:00:00 4.4 3 Sudeste 8 Este 0 962.2 0.3 80
2017-12-13 09:00:00 0.2 5 Sudeste 8 Sudeste 0 962.3 1.4 88
2017-12-13 08:00:00 0.2 -- -- 10 Norte 0 961.9 1.2 89
2017-12-13 07:00:00 0.2 -- -- 7 Norte 0 961.9 1.4 89
2017-12-13 06:00:00 0 -- -- 8 Norte 0 960.9 0.7 89
2017-12-13 05:00:00 0.2 -- -- 8 Norte 0 960.7 0.9 88
2017-12-13 04:00:00 0.8 -- -- 8 Norte 0 960.5 0.7 88
2017-12-13 03:00:00 1.3 -- -- 9 Norte 0 960.2 0.3 87
2017-12-13 02:00:00 0.9 -- -- 9 Norte 0 959.8 0.8 87
2017-12-13 01:00:00 1.1 -- -- 7 Norte 0 959.8 1.6 85
2017-12-13 00:00:00 1.8 -- -- 9 Norte 0 959.9 2 81
2017-12-12 23:00:00 3.7 -- -- 7 Norte 0 959 1.7 78
2017-12-12 22:00:00 3.6 -- -- 8 Norte 0 958.2 1.8 76
2017-12-12 21:00:00 2.5 -- -- 11 Norte 0 957.9 2.4 75
2017-12-12 20:00:00 2.9 -- -- 7 Norte 0 957.3 -- 71
2017-12-12 19:00:00 3.7 -- -- 10 Norte 0 956.4 -- 59
2017-12-12 18:00:00 7.5 -- -- -- -- 0 955.5 -- 39
2017-12-12 17:00:00 10.3 -- -- -- -- 0 -- -- 31
2017-12-12 16:00:00 10.8 -- -- -- -- 0 -- -- 31
2017-12-12 15:00:00 10.6 -- -- -- -- 0 -- -- 32
2017-12-12 14:00:00 9.7 -- -- -- -- 0 -- -- 32
2017-12-12 13:00:00 10.2 -- -- -- -- 0 -- -- 36
2017-12-12 12:00:00 8.5 -- -- -- -- 0 -- -- 43
2017-12-12 11:00:00 6.2 -- -- -- -- 0 -- -- 55
2017-12-12 10:00:00 4.7 -- -- -- -- 0 -- -- 59
2017-12-12 09:00:00 3.5 -- -- -- -- 0 -- -- 61
2017-12-12 08:00:00 3.2 -- -- -- -- 0 -- -- 65
2017-12-12 07:00:00 2.5 6 Noroeste 17 Noroeste 0 948.9 2.4 67
2017-12-12 06:00:00 3.5 6 Noroeste 25 Norte 0 947.8 2.5 64
2017-12-12 05:00:00 3.2 8 Noroeste 19 Noroeste 0 947.3 2.1 69
2017-12-12 04:00:00 3.9 10 Noroeste 21 Noroeste 0 946.5 2.3 65
2017-12-12 03:00:00 3.9 10 Noroeste 27 Norte 0 945.3 1.4 67
2017-12-12 02:00:00 4.3 12 Noroeste 31 Norte 0 945.2 2.5 75
2017-12-12 01:00:00 5 12 Noroeste 28 Norte 0 944.2 2 80
2017-12-12 00:00:00 5.4 5 Noroeste 22 Noroeste 0 943.9 2.2 83
2017-12-11 23:00:00 5.7 12 Noroeste 32 Noroeste 0 942.7 1.9 83
2017-12-11 22:00:00 5.6 12 Noroeste 21 Noroeste 0 942.2 1.7 82
2017-12-11 21:00:00 4.8 5 Oeste 12 Oeste 0 941.7 2.5 83
2017-12-11 20:00:00 5.3 9 Oeste 26 Noroeste 0 940.8 2 82
2017-12-11 19:00:00 7 4 Oeste 23 Noroeste 0.5 940.5 2.2 82
2017-12-11 18:00:00 9.8 9 Oeste 27 Oeste 0 939.2 1 46
2017-12-11 17:00:00 10.1 16 Oeste 36 Oeste 0 938.8 0.2 41
2017-12-11 16:00:00 10.9 14 Oeste 33 Oeste 0 938.3 -0.7 40
2017-12-11 15:00:00 10.1 23 Oeste 38 Noroeste 0 938.2 -0.8 42
2017-12-11 14:00:00 10 20 Oeste 31 Oeste 0 938.6 -0.8 47
2017-12-11 13:00:00 9.1 18 Oeste 30 Oeste 0 939 0.9 57
2017-12-11 12:00:00 8.4 18 Oeste 29 Oeste 0 939 2.1 73
2017-12-11 11:00:00 6.9 9 Oeste 22 Oeste 0 939.4 3.7 84
2017-12-11 10:00:00 6.2 13 Oeste 21 Noroeste 0 938.1 2.7 88
2017-12-11 09:00:00 5.5 13 Oeste 32 Noroeste 0.4 936.9 2.7 88
2017-12-11 08:00:00 5.7 21 Noroeste 49 Noroeste 2.6 935.7 2.2 85
2017-12-11 07:00:00 5.8 22 Noroeste 66 Noroeste 4.3 935.4 0.3 87
2017-12-11 06:00:00 8.6 23 Noroeste 62 Oeste 6.5 934.2 -2.9 92
2017-12-11 05:00:00 12.4 12 Oeste 43 Sur 4.6 933.5 -5.8 92
2017-12-11 04:00:00 11.8 15 Sudoeste 50 Sudoeste 2.6 935.1 -6.3 92
2017-12-11 03:00:00 12.1 15 Sudoeste 49 Sudoeste 1.1 937.1 -5.5 86
2017-12-11 02:00:00 12.7 14 Oeste 49 Noroeste 0 939.3 -4.6 77
2017-12-11 01:00:00 12.7 11 Oeste 45 Oeste 0.1 941.4 -4.1 77
2017-12-11 00:00:00 12.4 14 Oeste 49 Oeste 0 942.6 -4.3 76
2017-12-10 23:00:00 12 23 Noroeste 52 Noroeste 0 943.9 -4.4 82
2017-12-10 22:00:00 12 21 Oeste 41 Noroeste 0 945.5 -4.1 80
2017-12-10 21:00:00 12 8 Oeste 27 Sudoeste 0 946.9 -3.2 79
2017-12-10 20:00:00 12.3 6 Sudoeste 27 Noroeste 0 948.3 -2.5 76
2017-12-10 19:00:00 12.7 9 Oeste 25 Oeste 0 949.6 -2.5 72
2017-12-10 18:00:00 12.9 6 Sudoeste 23 Sudoeste 0 950.1 -3.3 68
2017-12-10 17:00:00 12.7 6 Sur 15 Sudoeste 0 950.8 -4.3 73
2017-12-10 16:00:00 12.5 7 Sudoeste 21 Sudoeste 0 952.1 -4 75
2017-12-10 15:00:00 11.5 8 Sudoeste 19 Sudoeste 0 953.4 -3.8 86
2017-12-10 14:00:00 11.2 9 Oeste 26 Oeste 0 955.1 -3 83
2017-12-10 13:00:00 11 12 Oeste 24 Oeste 0 956.1 -2.3 79
2017-12-10 12:00:00 11.4 6 Sudoeste 17 Sudoeste 0 957.2 -1.6 78
2017-12-10 11:00:00 10.9 6 Oeste 15 Oeste 0 958.1 -0.4 83
2017-12-10 10:00:00 9.5 3 Oeste 8 Sudoeste 0 958.4 -0.1 91
2017-12-10 09:00:00 6.2 3 Este 5 Este 0 958.8 -0.2 91
2017-12-10 08:00:00 7.4 4 Este 6 Sudoeste 0 958.5 -0.8 89
2017-12-10 07:00:00 9.7 0 Calma 5 Sudoeste 0 958.5 -1.7 87
2017-12-10 06:00:00 9.6 0 Calma 4 Oeste 0 959 -1.3 85
2017-12-10 05:00:00 9.9 3 Noroeste 16 Noroeste 0 959.3 -1.5 83
2017-12-10 04:00:00 11.5 10 Noroeste 21 Noroeste 0 960.2 -1.3 77
2017-12-10 03:00:00 11.6 14 Noroeste 21 Noroeste 0 960.3 -1.4 77
2017-12-10 02:00:00 11.7 8 Noroeste 21 Noroeste 0 960.8 -0.9 79
2017-12-10 01:00:00 11.8 9 Noroeste 21 Noroeste 0 961.5 -0.1 80
2017-12-10 00:00:00 12.1 10 Noroeste 22 Noroeste 0 961.7 0.3 78
2017-12-09 23:00:00 12.5 8 Noroeste 20 Oeste 0 961.7 0.7 78
2017-12-09 22:00:00 11.5 6 Noroeste 16 Noroeste 0 961.6 0.9 80
2017-12-09 21:00:00 10.4 0 Calma 7 Oeste 0 961.4 0.7 75
2017-12-09 20:00:00 10.8 0 Calma 11 Noroeste 0 961 0.6 65
2017-12-09 19:00:00 14 6 Oeste 14 Oeste 0 960.7 0.1 56
2017-12-09 18:00:00 14.3 8 Noroeste 24 Noroeste 0 960.7 -0.2 50
2017-12-09 17:00:00 16.2 15 Oeste 24 Oeste 0 960.4 -1.1 45
2017-12-09 16:00:00 16.1 13 Noroeste 20 Oeste 0 960.6 -1.5 51
2017-12-09 15:00:00 16.6 10 Noroeste 21 Noroeste 0 960.9 -1.7 51
2017-12-09 14:00:00 15.5 13 Noroeste 24 Noroeste 0 961.5 -1 56
2017-12-09 13:00:00 14.6 10 Noroeste 21 Noroeste 0 962.1 -0.1 63
2017-12-09 12:00:00 13.9 10 Noroeste 23 Noroeste 0 962.6 0.9 69
2017-12-09 11:00:00 13.1 9 Noroeste 23 Oeste 0 962.5 1.3 75
2017-12-09 10:00:00 12.5 6 Noroeste 15 Noroeste 0 962.2 1 83
2017-12-09 09:00:00 12.2 6 Noroeste 20 Norte 0 961.7 0.6 83
2017-12-09 08:00:00 12 5 Noroeste 15 Noroeste 0 961.2 -0.2 86
2017-12-09 07:00:00 11.6 5 Noroeste 16 Noroeste 0 961.2 -0.7 89
2017-12-09 06:00:00 11.5 7 Noroeste 15 Noroeste 0 961.1 -1 89
2017-12-09 05:00:00 11.7 6 Noroeste 17 Oeste 0 961.4 -0.8 87
2017-12-09 04:00:00 11.7 7 Noroeste 17 Noroeste 0 961.9 -0.2 87
2017-12-09 03:00:00 11.9 6 Noroeste 12 Noroeste 0 962.1 -0.6 83
2017-12-09 02:00:00 11.9 10 Noroeste 18 Noroeste 0 962.2 -0.8 81
2017-12-09 01:00:00 12 5 Noroeste 19 Noroeste 0 962.1 -0.8 77
2017-12-09 00:00:00 12.1 8 Noroeste 21 Noroeste 0 962.7 0 76
2017-12-08 23:00:00 12.5 10 Noroeste 21 Noroeste 0 963 0.2 71
2017-12-08 22:00:00 12.8 10 Noroeste 21 Noroeste 0 962.9 0.2 68
2017-12-08 21:00:00 13.3 7 Noroeste 13 Noroeste 0 962.7 0.2 65
2017-12-08 20:00:00 13.5 7 Noroeste 14 Noroeste 0 962.8 0.3 61
2017-12-08 19:00:00 13.9 7 Noroeste 24 Noroeste 0 962.7 0.2 56
2017-12-08 18:00:00 14.6 14 Noroeste 29 Noroeste 0 962.5 -0.2 51
2017-12-08 17:00:00 16.5 9 Noroeste 26 Noroeste 0 962.5 -0.6 36
2017-12-08 16:00:00 17.5 12 Noroeste 20 Noroeste 0 962.5 -1.1 19
2017-12-08 15:00:00 17.6 8 Noroeste 17 Noroeste 0 962.7 -1.8 18
2017-12-08 14:00:00 16.8 8 Noroeste 16 Noroeste 0 963.1 -1.8 19
2017-12-08 13:00:00 15.8 6 Oeste 12 Oeste 0 963.6 -0.9 23
2017-12-08 12:00:00 13.8 8 Oeste 13 Oeste 0 964.5 0.2 30
2017-12-08 11:00:00 10.5 7 Oeste 9 Oeste 0 964.9 1.1 41
2017-12-08 10:00:00 7.3 4 Este 9 Este 0 964.5 0.8 57
2017-12-08 09:00:00 2.2 6 Este 8 Este 0 964.3 0.5 71
2017-12-08 08:00:00 2.2 5 Este 9 Sudeste 0 963.8 0 67
2017-12-08 07:00:00 1.6 6 Este 9 Este 0 963.7 -0.3 72
2017-12-08 06:00:00 2.2 4 Este 8 Este 0 963.8 -0.2 68
2017-12-08 05:00:00 2.5 6 Este 10 Este 0 963.8 -0.4 67
2017-12-08 04:00:00 2.8 5 Este 9 Este 0 964 -0.9 70
2017-12-08 03:00:00 4 3 Sudeste 7 Este 0 964 -1 69
2017-12-08 02:00:00 3.2 2 Sudeste 8 Este 0 964.2 -0.7 74
2017-12-08 01:00:00 1.5 2 Sudeste 9 Este 0 964.9 0 78
2017-12-08 00:00:00 1.5 3 Sudeste 8 Este 0 965 0.1 79
2017-12-07 23:00:00 2.7 3 Sudeste 8 Este 0 964.9 0.3 81
2017-12-07 22:00:00 2.9 4 Sudeste 6 Este 0 964.9 0.4 78
2017-12-07 21:00:00 4.1 2 Sudeste 7 Sudeste 0 964.9 0.7 74
2017-12-07 20:00:00 4.1 6 Este 9 Este 0 964.6 0.7 69
2017-12-07 19:00:00 5.5 4 Sudeste 6 Sudeste 0 964.5 0.6 56
2017-12-07 18:00:00 9.6 3 Este 7 Oeste 0 964.2 0.2 37
2017-12-07 17:00:00 14.9 4 Oeste 10 Sudoeste 0 963.9 -0.6 25
2017-12-07 16:00:00 16.4 4 Sur 9 Sudoeste 0 963.9 -1.1 25
2017-12-07 15:00:00 15.6 0 Calma 13 Sudoeste 0 964 -2 25
2017-12-07 14:00:00 15 4 Oeste 13 Oeste 0 964.5 -1.6 28
2017-12-07 13:00:00 14.2 2 Sur 6 Sudeste 0 965 -0.9 32
2017-12-07 12:00:00 11.1 5 Este 8 Nordeste 0 966 0.6 39
2017-12-07 11:00:00 10.5 3 Sudeste 7 Este 0 966.1 1.1 53
2017-12-07 10:00:00 4.6 5 Este 7 Este 0 965.9 1.6 81
2017-12-07 09:00:00 0.2 3 Sudeste 10 Este 0 965.4 0.8 90
2017-12-07 08:00:00 -1.5 4 Este 6 Este 0 965 0.1 89
2017-12-07 07:00:00 -1 5 Sudeste 7 Este 0 964.3 -0.9 89
2017-12-07 06:00:00 -0.8 4 Este 7 Este 0 964.6 -0.3 88
2017-12-07 05:00:00 -0.4 5 Este 6 Sudeste 0 964.9 -0.2 84
2017-12-07 04:00:00 -0.2 3 Sudeste 6 Este 0 965.2 -0.5 81
2017-12-07 03:00:00 1 4 Sudeste 8 Este 0 964.9 -1.3 80
2017-12-07 02:00:00 1.1 4 Sudeste 7 Sudeste 0 965.1 -0.6 74
2017-12-07 01:00:00 0.6 5 Sudeste 9 Este 0 965.7 -0.4 71
2017-12-07 00:00:00 0.7 3 Sudeste 8 Este 0 966.2 0.6 67
2017-12-06 23:00:00 0.8 5 Sudeste 9 Este 0 965.7 0.4 64
2017-12-06 22:00:00 0.5 3 Sudeste 6 Sudeste 0 966.1 0.9 67
2017-12-06 21:00:00 0.8 0 Calma 5 Sudeste 0 965.6 0.6 63
2017-12-06 20:00:00 2.7 4 Sudeste 8 Sudeste 0 965.3 0.5 54
2017-12-06 19:00:00 4.5 6 Sudeste 8 Sudeste 0 965.2 0.4 46
2017-12-06 18:00:00 6.7 4 Este 8 Sur 0 965 0 33
2017-12-06 17:00:00 13.1 3 Sudeste 10 Sur 0 964.8 -0.7 24
2017-12-06 16:00:00 14.8 4 Sudeste 11 Sur 0 964.8 -1.5 23
2017-12-06 15:00:00 14.4 4 Sudeste 11 Sur 0 965 -2 26
2017-12-06 14:00:00 13.6 5 Este 11 Este 0 965.5 -1.9 28
2017-12-06 13:00:00 12.4 5 Sudeste 13 Sudeste 0 966.3 -0.8 33
2017-12-06 12:00:00 11.2 9 Este 18 Este 0 967 0.1 40
2017-12-06 11:00:00 8.7 8 Este 15 Este 0 967.4 0.8 51
2017-12-06 10:00:00 5.4 7 Este 10 Sudeste 0 967.1 0.8 84
2017-12-06 09:00:00 -0.5 0 Calma 4 Este 0 966.9 0.7 93
2017-12-06 08:00:00 0.1 4 Este 9 Este 0 966.6 0 93
2017-12-06 07:00:00 -0.2 5 Este 7 Este 0 966.3 -0.4 91
2017-12-06 06:00:00 0 6 Este 8 Este 0 966.2 -0.5 90
2017-12-06 05:00:00 -0.2 3 Sudeste 9 Sudeste 0 966.6 -0.4 88
2017-12-06 04:00:00 -0.4 6 Este 9 Este 0 966.7 -0.9 85
2017-12-06 03:00:00 -0.7 4 Sudeste 7 Este 0 966.7 -0.9 79
2017-12-06 02:00:00 -0.9 4 Este 8 Sudeste 0 967 -0.5 81
2017-12-06 01:00:00 -0.6 2 Este 6 Este 0 967.6 0.2 80
2017-12-06 00:00:00 0.4 3 Sudeste 6 Sudeste 0 967.6 0.3 76
2017-12-05 23:00:00 0.8 3 Sudeste 6 Sudeste 0 967.5 0.2 68
2017-12-05 22:00:00 1.4 4 Sudeste 6 Sudeste 0 967.4 0.2 60
2017-12-05 21:00:00 2.3 6 Este 8 Este 0 967.3 0.6 60
2017-12-05 20:00:00 2.1 4 Este 6 Este 0 967.3 0.8 57
2017-12-05 19:00:00 2.6 4 Este 7 Este 0 967.2 0.6 49
2017-12-05 18:00:00 6.3 4 Este 7 Sudeste 0 966.7 0.1 34
2017-12-05 17:00:00 12.6 5 Sudeste 12 Sur 0 966.5 -0.5 24
2017-12-05 16:00:00 14.3 4 Sur 14 Sudeste 0 966.6 -1 22
2017-12-05 15:00:00 13.8 6 Sudeste 16 Este 0 966.6 -1.7 24
2017-12-05 14:00:00 13 8 Este 15 Sur 0 967 -1.3 25
2017-12-05 13:00:00 12.6 6 Sudeste 15 Este 0 967.6 -0.4 29
2017-12-05 12:00:00 10.5 10 Este 16 Sudeste 0 968.3 0.9 36
2017-12-05 11:00:00 9.1 7 Este 13 Este 0 968.3 1.1 45
2017-12-05 10:00:00 4.7 5 Este 7 Este 0 968 1.3 68
2017-12-05 09:00:00 0 6 Sudeste 9 Sudeste 0 967.4 0.9 80
2017-12-05 08:00:00 -0.9 3 Este 6 Este 0 967.2 0.6 80
2017-12-05 07:00:00 -1.1 5 Este 8 Este 0 966.7 -0.1 81
2017-12-05 06:00:00 -1.5 4 Este 10 Este 0 966.5 -0.2 84
2017-12-05 05:00:00 -0.5 6 Este 10 Este 0 966.6 -0.3 80
2017-12-05 04:00:00 -1.2 3 Sudeste 8 Este 0 966.8 -0.3 81
2017-12-05 03:00:00 -0.7 3 Sudeste 6 Este 0 966.7 -0.4 77
2017-12-05 02:00:00 -0.3 4 Sudeste 7 Este 0 966.9 -0.1 71
2017-12-05 01:00:00 0.1 6 Este 8 Este 0 967.1 0.1 71
2017-12-05 00:00:00 0.3 4 Sudeste 8 Este 0 967.1 0.3 68
2017-12-04 23:00:00 1.1 4 Este 8 Este 0 967 0.5 66
2017-12-04 22:00:00 2.6 5 Sudeste 8 Este 0 967 0.9 59
2017-12-04 21:00:00 2 4 Sudeste 8 Sudeste 0 966.8 1.4 63
2017-12-04 20:00:00 3.6 5 Sudeste 8 Sudeste 0 966.5 1.4 56
2017-12-04 19:00:00 3.4 3 Sudeste 6 Sudeste 0 966.1 1.4 50
2017-12-04 18:00:00 8.6 2 Este 9 Nordeste 0 965.4 0.5 29
2017-12-04 17:00:00 13 4 Este 15 Sudeste 0 965.1 -0.2 23
2017-12-04 16:00:00 13.2 6 Este 17 Este 0 964.7 -1.2 22
2017-12-04 15:00:00 13.8 4 Este 17 Sudeste 0 964.9 -1.6 22
2017-12-04 14:00:00 12.7 10 Nordeste 20 Este 0 965.3 -1.2 23
2017-12-04 13:00:00 11.4 11 Este 20 Sudeste 0 965.9 0.3 24
2017-12-04 12:00:00 10.4 10 Este 20 Este 0 966.5 1.3 30
2017-12-04 11:00:00 8.2 14 Este 24 Este 0 966.5 1.8 34
2017-12-04 10:00:00 6 13 Este 21 Este 0 965.6 1.4 35
2017-12-04 09:00:00 3.9 8 Este 17 Este 0 965.2 1.1 35
2017-12-04 08:00:00 1.5 6 Sudeste 17 Este 0 964.7 0.7 37
2017-12-04 07:00:00 3.7 12 Este 21 Este 0 964.2 -0.2 32
2017-12-04 06:00:00 3.4 11 Este 20 Este 0 964.1 -0.1 33
2017-12-04 05:00:00 3.5 12 Este 19 Este 0 964 -0.4 33
2017-12-04 04:00:00 3.8 12 Este 19 Este 0 964.4 -0.2 34
2017-12-04 03:00:00 2.2 5 Sudeste 10 Este 0 964.2 -0.2 38
2017-12-04 02:00:00 1.9 7 Sudeste 14 Este 0 964.4 0.5 39
2017-12-04 01:00:00 2.1 6 Sudeste 14 Este 0 964.6 0.8 40
2017-12-04 00:00:00 2.5 7 Este 12 Este 0 964.4 1 39
2017-12-03 23:00:00 2.8 6 Este 11 Este 0 963.9 0.8 37
2017-12-03 22:00:00 3.3 6 Sudeste 12 Este 0 963.8 1.1 34
2017-12-03 21:00:00 5.1 8 Este 15 Este 0 963.4 1.1 30
2017-12-03 20:00:00 5.4 7 Este 15 Este 0 963.1 1.2 29
2017-12-03 19:00:00 5.3 6 Nordeste 14 Nordeste 0 962.7 1.1 29
2017-12-03 18:00:00 7.2 5 Nordeste 17 Nordeste 0 962.3 0.7 25
2017-12-03 17:00:00 9.1 8 Nordeste 23 Este 0 961.9 0.2 23
2017-12-03 16:00:00 9.5 10 Nordeste 26 Este 0 961.6 -0.5 22
2017-12-03 15:00:00 9.3 13 Este 28 Este 0 961.6 -0.8 21
2017-12-03 14:00:00 9.1 14 Este 31 Este 0 961.7 -0.5 24
2017-12-03 13:00:00 8.2 19 Este 38 Este 0 962.1 0.5 25
2017-12-03 12:00:00 8 15 Este 31 Este 0 962.4 1.3 28
2017-12-03 11:00:00 6.8 16 Este 31 Este 0 962.2 1.4 34
2017-12-03 10:00:00 5 10 Este 23 Nordeste 0 961.6 1.3 45
2017-12-03 09:00:00 3.3 10 Este 16 Este 0 961.1 1.3 52
2017-12-03 08:00:00 -2.3 0 Calma 6 Sudeste 0 960.8 1.4 70
2017-12-03 07:00:00 -0.1 0 Calma 10 Este 0 960.3 1 59
2017-12-03 06:00:00 2.6 6 Este 19 Nordeste 0 959.8 0.2 51
2017-12-03 05:00:00 3 9 Nordeste 15 Este 0 959.4 0 51
2017-12-03 04:00:00 0.7 4 Este 8 Sudeste 0 959.3 0 61
2017-12-03 03:00:00 -0.3 0 Calma 11 Nordeste 0 959.6 0 61
2017-12-03 02:00:00 0.1 4 Este 8 Sudeste 0 959.4 0 61
2017-12-03 01:00:00 2.6 2 Este 15 Nordeste 0 959.3 -0.2 49
2017-12-03 00:00:00 3.4 6 Nordeste 16 Nordeste 0 959.6 0.7 52
2017-12-02 23:00:00 0.2 3 Sudeste 6 Este 0 959.4 0.8 62
2017-12-02 22:00:00 1.8 4 Este 14 Norte 0 959.5 1.3 54
2017-12-02 21:00:00 3.7 6 Nordeste 13 Nordeste 0 958.9 1 51
2017-12-02 20:00:00 1.9 4 Sudeste 6 Sudeste 0 958.6 1 54
2017-12-02 19:00:00 2.9 2 Este 9 Nordeste 0 958.2 0.7 41
2017-12-02 18:00:00 7.5 5 Este 22 Nordeste 0 957.9 0 28
2017-12-02 17:00:00 8.9 12 Nordeste 23 Este 0 957.6 -0.6 25
2017-12-02 16:00:00 10.2 9 Nordeste 25 Nordeste 0 957.5 -1.6 25
2017-12-02 15:00:00 10.4 8 Nordeste 27 Nordeste 0 957.9 -1.6 26
2017-12-02 14:00:00 10.1 8 Nordeste 25 Nordeste 0 958.2 -1.4 27
2017-12-02 13:00:00 9 12 Este 31 Este 0 959.1 0.2 29
2017-12-02 12:00:00 8.1 14 Este 27 Este 0 959.5 0.9 32
2017-12-02 11:00:00 6 17 Este 29 Este 0 959.6 1.3 37
2017-12-02 10:00:00 4.4 15 Este 27 Este 0 958.9 0.9 42
2017-12-02 09:00:00 3.1 13 Este 27 Este 0 958.6 0.9 45
2017-12-02 08:00:00 2.4 10 Este 18 Este 0 958.3 0.8 47
2017-12-02 07:00:00 1.5 2 Sudeste 15 Norte 0 958 0.5 46
2017-12-02 06:00:00 3.3 6 Este 17 Nordeste 0 957.7 0.1 41
2017-12-02 05:00:00 3.7 9 Nordeste 22 Nordeste 0 957.5 -0.3 40
2017-12-02 04:00:00 3.4 12 Nordeste 20 Nordeste 0 957.5 -0.4 43
2017-12-02 03:00:00 3.1 9 Este 13 Este 0 957.6 -0.2 45
2017-12-02 02:00:00 4.5 7 Este 21 Este 0 957.8 0.6 42
2017-12-02 01:00:00 5.6 11 Este 23 Este 0 957.9 1.2 42
2017-12-02 00:00:00 6.2 10 Este 18 Este 0 957.8 1.6 50
2017-12-01 23:00:00 7 9 Nordeste 21 Nordeste 0 957.2 1.6 52
2017-12-01 22:00:00 6.7 4 Noroeste 14 Noroeste 0 956.7 1.9 53
2017-12-01 21:00:00 5.7 4 Noroeste 8 Noroeste 0 956.2 2.1 53
2017-12-01 20:00:00 6.5 4 Noroeste 12 Noroeste 0 955.6 1.7 48
2017-12-01 19:00:00 7.9 6 Noroeste 28 Noroeste 0 954.8 1.5 42
2017-12-01 18:00:00 9 15 Noroeste 35 Noroeste 0 954.1 0.3 38
2017-12-01 17:00:00 10.9 15 Noroeste 37 Noroeste 0 953.9 -0.7 33
2017-12-01 16:00:00 11.7 16 Noroeste 32 Noroeste 0 953.3 -2.3 30
2017-12-01 15:00:00 11.6 17 Noroeste 30 Noroeste 0 953.8 -2.4 31
2017-12-01 14:00:00 10.7 14 Noroeste 31 Oeste 0 954.6 -1.6 33
2017-12-01 13:00:00 10.1 18 Noroeste 33 Noroeste 0 955.6 -0.4 35
2017-12-01 12:00:00 8.8 15 Noroeste 28 Noroeste 0 956.2 0.1 37
2017-12-01 11:00:00 7.2 9 Oeste 14 Oeste 0 956.2 0 48
2017-12-01 10:00:00 4.5 3 Oeste 9 Noroeste 0 956 -0.1 66
2017-12-01 09:00:00 -0.8 2 Este 7 Este 0 956.1 0.3 81
2017-12-01 08:00:00 -1.3 2 Sudeste 7 Oeste 0 956.2 -0.1 81
2017-12-01 07:00:00 -0.8 0 Calma 9 Nordeste 0 956.1 -0.4 79
2017-12-01 06:00:00 -1.5 3 Este 8 Oeste 0 955.8 -0.6 79
2017-12-01 05:00:00 -0.6 3 Oeste 6 Este 0 956.3 -0.2 74
2017-12-01 04:00:00 0 3 Sudeste 5 Sudeste 0 956.5 -0.1 71
2017-12-01 03:00:00 -0.6 3 Sudeste 8 Este 0 956.4 -0.3 74
2017-12-01 02:00:00 -0.3 4 Este 6 Sudeste 0 956.5 0.5 70
2017-12-01 01:00:00 0.8 2 Este 9 Nordeste 0 956.6 1.4 57
2017-12-01 00:00:00 4.6 5 Norte 13 Noroeste 0 956.7 1.8 38
2017-11-30 23:00:00 5.3 3 Noroeste 18 Nordeste 0 956 1.7 32
2017-11-30 22:00:00 6.4 8 Nordeste 18 Nordeste 0 955.2 2 31
2017-11-30 21:00:00 7.1 9 Nordeste 23 Nordeste 0 954.9 2.3 29
2017-11-30 20:00:00 7.5 9 Nordeste 24 Nordeste 0 954.3 2.6 28
2017-11-30 19:00:00 7.8 9 Nordeste 26 Nordeste 0 953.2 2.3 28
2017-11-30 18:00:00 8.8 11 Nordeste 26 Nordeste 0 952.6 2 26
2017-11-30 17:00:00 10.2 12 Nordeste 31 Nordeste 0 951.7 1.2 23
2017-11-30 16:00:00 10.5 14 Nordeste 30 Norte 0 950.9 0.7 23
2017-11-30 15:00:00 10.8 15 Nordeste 31 Nordeste 0 950.6 0.3 23
2017-11-30 14:00:00 10.2 13 Nordeste 36 Nordeste 0 950.5 0.8 26
2017-11-30 13:00:00 9 19 Nordeste 39 Nordeste 0 950.2 1.5 31
2017-11-30 12:00:00 8.9 16 Nordeste 34 Nordeste 0 950.3 2.6 37
2017-11-30 11:00:00 8.1 12 Nordeste 38 Nordeste 0 949.7 3 42
2017-11-30 10:00:00 6.5 12 Nordeste 25 Nordeste 0 948.7 2.6 49
2017-11-30 09:00:00 5 9 Nordeste 24 Nordeste 0 947.7 2.6 56
2017-11-30 08:00:00 5.6 11 Nordeste 21 Nordeste 0 946.7 1.6 56
2017-11-30 07:00:00 5.3 8 Nordeste 19 Norte 0 946.1 1 61
2017-11-30 06:00:00 5.3 9 Nordeste 17 Nordeste 0 945.1 0.4 63
2017-11-30 05:00:00 5.7 8 Nordeste 15 Este 0 945.1 0.4 65
2017-11-30 04:00:00 5.4 6 Este 15 Nordeste 0 945.1 0.3 71
2017-11-30 03:00:00 5.9 8 Nordeste 22 Nordeste 0 944.7 -0.3 71
2017-11-30 02:00:00 6.5 8 Norte 18 Norte 0 944.7 -0.2 68
2017-11-30 01:00:00 6.6 5 Nordeste 16 Noroeste 0 944.8 0.2 65
2017-11-30 00:00:00 6.7 4 Noroeste 18 Noroeste 0 945 0.6 61
2017-11-29 23:00:00 7 6 Noroeste 13 Norte 0 944.9 0.9 61
2017-11-29 22:00:00 8.4 3 Nordeste 16 Nordeste 0 944.6 0.8 59
2017-11-29 21:00:00 8.2 2 Noroeste 15 Norte 0 944.4 1.2 60
2017-11-29 20:00:00 8.7 6 Noroeste 18 Noroeste 0 944 1.5 58
2017-11-29 19:00:00 9.6 3 Noroeste 17 Norte 0 943.8 1.7 53
2017-11-29 18:00:00 11.5 5 Noroeste 28 Noroeste 0 943.2 1.2 49
2017-11-29 17:00:00 14.2 9 Noroeste 21 Noroeste 0 942.5 -0.1 44
2017-11-29 16:00:00 14.7 12 Noroeste 28 Noroeste 0 942.1 -0.8 52
2017-11-29 15:00:00 13.6 17 Noroeste 24 Noroeste 0 942 -1.1 60
2017-11-29 14:00:00 13.5 9 Norte 19 Norte 0 942.6 -0.6 73
2017-11-29 13:00:00 13.2 10 Noroeste 20 Oeste 0 942.9 -0.5 78
2017-11-29 12:00:00 13.8 8 Norte 14 Norte 0 943.1 -0.3 81
2017-11-29 11:00:00 13.8 4 Oeste 10 Noroeste 0 943.2 0.3 91
2017-11-29 10:00:00 12.9 3 Norte 10 Noroeste 0 943.4 0.5 92
2017-11-29 09:00:00 12.8 7 Noroeste 12 Noroeste 0.1 943.4 0.5 92
2017-11-29 08:00:00 12.7 5 Noroeste 9 Noroeste 0.1 942.9 0.5 92
2017-11-29 07:00:00 12.5 5 Noroeste 10 Noroeste 0.1 942.9 -0.6 92
2017-11-29 06:00:00 12.5 5 Sur 15 Oeste 0 942.9 -1.2 92
2017-11-29 05:00:00 13 7 Oeste 13 Noroeste 0.4 942.4 -2.4 91
2017-11-29 04:00:00 12.4 6 Noroeste 10 Noroeste 0.7 943.5 -2.3 92
2017-11-29 03:00:00 11.8 3 Nordeste 6 Norte 0.4 944.1 -2.5 92
2017-11-29 02:00:00 11.2 0 Calma 4 Sur 0.1 944.8 -2.4 91
2017-11-29 01:00:00 11.4 2 Noroeste 6 Sur 0.4 945.8 -2.1 91
2017-11-29 00:00:00 12.2 3 Noroeste 19 Noroeste 1 946.6 -2.1 91
2017-11-28 23:00:00 12.5 2 Este 7 Sudeste 3.9 947.2 -1.9 86
2017-11-28 22:00:00 13 2 Sudeste 15 Sur 0.4 947.9 -1.7 77
2017-11-28 21:00:00 13.5 4 Sur 15 Sudeste 0 948.7 -1.6 67
2017-11-28 20:00:00 13.6 3 Sur 15 Sudoeste 0 949.1 -1.6 65
2017-11-28 19:00:00 13.6 6 Sudoeste 14 Sudoeste 0 949.6 -1.5 61
2017-11-28 18:00:00 13.8 5 Sudoeste 22 Oeste 0 950.3 -1.1 57
2017-11-28 17:00:00 -- -- -- -- -- -- -- -- --
2017-11-28 16:00:00 -- -- -- -- -- -- -- -- --
2017-11-28 15:00:00 -- -- -- -- -- -- -- -- --
2017-11-28 14:00:00 -- -- -- -- -- -- -- -- --
2017-11-28 13:00:00 -- -- -- -- -- -- -- -- --
2017-11-28 12:00:00 -- -- -- -- -- -- -- -- --
2017-11-28 11:00:00 -- -- -- -- -- -- -- -- --
2017-11-28 10:00:00 -- -- -- -- -- -- -- -- --
2017-11-28 09:00:00 -- -- -- -- -- -- -- -- --
2017-11-28 08:00:00 -- -- -- -- -- -- -- -- --
2017-11-28 07:00:00 -- -- -- -- -- -- -- -- --
2017-11-28 06:00:00 -- -- -- -- -- -- -- -- --
2017-11-28 05:00:00 -- -- -- -- -- -- -- -- --
2017-11-28 04:00:00 -- -- -- -- -- -- -- -- --
2017-11-28 03:00:00 -- -- -- -- -- -- -- -- --
2017-11-28 02:00:00 -- -- -- -- -- -- -- -- --
2017-11-28 01:00:00 -- -- -- -- -- -- -- -- --
2017-11-28 00:00:00 -- -- -- -- -- -- -- -- --
2017-11-27 23:00:00 -- -- -- -- -- -- -- -- --
2017-11-27 22:00:00 -- -- -- -- -- -- -- -- --
2017-11-27 21:00:00 -- -- -- -- -- -- -- -- --
2017-11-27 20:00:00 -- -- -- -- -- -- -- -- --
2017-11-27 19:00:00 -- -- -- -- -- -- -- -- --
2017-11-27 18:00:00 -- -- -- -- -- -- -- -- --
2017-11-27 17:00:00 -- -- -- -- -- -- -- -- --
2017-11-27 16:00:00 -- -- -- -- -- -- -- -- --
2017-11-27 15:00:00 -- -- -- -- -- -- -- -- --
2017-11-27 14:00:00 -- -- -- -- -- -- -- -- --
2017-11-27 13:00:00 -- -- -- -- -- -- -- -- --
2017-11-27 12:00:00 -- -- -- -- -- -- -- -- --
2017-11-27 11:00:00 -- -- -- -- -- -- -- -- --
2017-11-27 10:00:00 -- -- -- -- -- -- -- -- --
2017-11-27 09:00:00 -- -- -- -- -- -- -- -- --
2017-11-27 08:00:00 -- -- -- -- -- -- -- -- --
2017-11-27 07:00:00 -- -- -- -- -- -- -- -- --
2017-11-27 06:00:00 -- -- -- -- -- -- -- -- --
2017-11-27 05:00:00 -- -- -- -- -- -- -- -- --
2017-11-27 04:00:00 -- -- -- -- -- -- -- -- --
2017-11-27 03:00:00 -- -- -- -- -- -- -- -- --
2017-11-27 02:00:00 -- -- -- -- -- -- -- -- --
2017-11-27 01:00:00 -- -- -- -- -- -- -- -- --
2017-11-27 00:00:00 -- -- -- -- -- -- -- -- --
2017-11-26 23:00:00 -- -- -- -- -- -- -- -- --
2017-11-26 22:00:00 -- -- -- -- -- -- -- -- --
2017-11-26 21:00:00 -- -- -- -- -- -- -- -- --
2017-11-26 20:00:00 -- -- -- -- -- -- -- -- --
2017-11-26 19:00:00 -- -- -- -- -- -- -- -- --
2017-11-26 18:00:00 -- -- -- -- -- -- -- -- --
2017-11-26 17:00:00 -- -- -- -- -- -- -- -- --
2017-11-26 16:00:00 -- -- -- -- -- -- -- -- --
2017-11-26 15:00:00 -- -- -- -- -- -- -- -- --
2017-11-26 14:00:00 -- -- -- -- -- -- -- -- --
2017-11-26 13:00:00 -- -- -- -- -- -- -- -- --
2017-11-26 12:00:00 -- -- -- -- -- -- -- -- --
2017-11-26 11:00:00 -- -- -- -- -- -- -- -- --
2017-11-26 10:00:00 -- -- -- -- -- -- -- -- --
2017-11-26 09:00:00 -- -- -- -- -- -- -- -- --
2017-11-26 08:00:00 -- -- -- -- -- -- -- -- --
2017-11-26 07:00:00 -- -- -- -- -- -- -- -- --
2017-11-26 06:00:00 -- -- -- -- -- -- -- -- --
2017-11-26 05:00:00 -- -- -- -- -- -- -- -- --
2017-11-26 04:00:00 -- -- -- -- -- -- -- -- --
2017-11-26 03:00:00 -- -- -- -- -- -- -- -- --
2017-11-26 02:00:00 -- -- -- -- -- -- -- -- --
2017-11-26 01:00:00 -- -- -- -- -- -- -- -- --
2017-11-26 00:00:00 -- -- -- -- -- -- -- -- --
2017-11-25 23:00:00 -- -- -- -- -- -- -- -- --
2017-11-25 22:00:00 -- -- -- -- -- -- -- -- --
2017-11-25 21:00:00 -- -- -- -- -- -- -- -- --
2017-11-25 20:00:00 -- -- -- -- -- -- -- -- --
2017-11-25 19:00:00 15.5 4 Noroeste 8 Norte 0 957.4 1.4 58
2017-11-25 18:00:00 16.5 2 Norte 14 Norte 0 957 1.3 46
2017-11-25 17:00:00 17.6 0 Calma 10 Oeste 0 956.4 0.3 41
2017-11-25 16:00:00 17.8 6 Oeste 18 Oeste 0 956 -0.7 41
2017-11-25 15:00:00 18.9 12 Oeste 21 Oeste 0 955.7 -1.2 39
2017-11-25 14:00:00 17.6 9 Oeste 16 Oeste 0 956.1 -0.5 39
2017-11-25 13:00:00 17 9 Oeste 15 Oeste 0 956.7 0.5 35
2017-11-25 12:00:00 16.2 5 Sudoeste 13 Sudoeste 0 956.9 0.9 35
2017-11-25 11:00:00 15.9 6 Sur 21 Sur 0 956.6 0.8 35
2017-11-25 10:00:00 15.5 11 Sur 22 Sur 0 956.2 0.8 38
2017-11-25 09:00:00 10.4 3 Este 6 Este 0 956 0.6 56
2017-11-25 08:00:00 8.1 2 Este 7 Este 0 955.8 0.2 58
2017-11-25 07:00:00 8.9 4 Este 7 Este 0 955.4 -0.5 55
2017-11-25 06:00:00 11.4 4 Este 9 Sur 0 955.4 -0.2 49
2017-11-25 05:00:00 10.6 0 Calma 4 Este 0 955.6 -0.4 54
2017-11-25 04:00:00 9.1 3 Este 5 Este 0 955.9 -0.5 58
2017-11-25 03:00:00 8.3 0 Calma 6 Sur 0 955.6 -0.8 58
2017-11-25 02:00:00 7.3 4 Este 6 Este 0 956 -0.4 60
2017-11-25 01:00:00 7.6 4 Este 7 Este 0 956.4 -0.2 59
2017-11-25 00:00:00 7.2 5 Este 8 Este 0 956.4 -0.2 57
2017-11-24 23:00:00 8.4 5 Sudeste 8 Este 0 956.4 0.2 53
2017-11-24 22:00:00 9 6 Este 8 Este 0 956.6 0.5 48
2017-11-24 21:00:00 10.7 3 Sudeste 6 Sudeste 0 956.6 0.8 43
2017-11-24 20:00:00 12.3 0 Calma 4 Oeste 0 956.2 0.6 36
2017-11-24 19:00:00 15.6 3 Sur 13 Sur 0 956.1 0.6 29
2017-11-24 18:00:00 17.8 7 Sur 16 Sur 0 955.8 0.2 27
2017-11-24 17:00:00 19.2 6 Sudoeste 18 Sudoeste 0 955.6 -0.5 25
2017-11-24 16:00:00 19.8 8 Sudoeste 18 Sudoeste 0 955.5 -1 25
2017-11-24 15:00:00 20.7 8 Sudoeste 23 Sur 0 955.6 -1.4 24
2017-11-24 14:00:00 20.8 9 Sudoeste 25 Sudoeste 0 956.1 -1.2 24
2017-11-24 13:00:00 19.8 9 Sudoeste 19 Sudoeste 0 956.5 -0.5 25
2017-11-24 12:00:00 18.6 9 Sur 20 Sur 0 957 0.4 29
2017-11-24 11:00:00 17.5 6 Sur 15 Sur 0 957.3 0.9 34
2017-11-24 10:00:00 12.9 2 Este 7 Este 0 957 1.1 54
2017-11-24 09:00:00 6.9 4 Sudeste 9 Sudeste 0 956.6 0.7 71
2017-11-24 08:00:00 5.2 6 Este 9 Este 0 956.4 0.8 73
2017-11-24 07:00:00 5.9 3 Sudeste 9 Este 0 955.9 -0.3 71
2017-11-24 06:00:00 5.8 6 Este 9 Este 0 955.9 0.1 69
2017-11-24 05:00:00 5.7 6 Este 8 Este 0 955.6 -0.1 64
2017-11-24 04:00:00 7.3 4 Este 6 Este 0 956.2 0 55
2017-11-24 03:00:00 8.7 2 Este 13 Sur 0 955.8 -0.5 44
2017-11-24 02:00:00 14.4 6 Sur 13 Sur 0 955.7 -0.6 35
2017-11-24 01:00:00 9.1 0 Calma 9 Sur 0 956.2 0.1 48
2017-11-24 00:00:00 10.1 3 Sur 8 Sur 0 956.3 0.5 39
2017-11-23 23:00:00 14.6 5 Sur 13 Sur 0 956.3 0.3 29
2017-11-23 22:00:00 15.7 4 Sur 13 Sudoeste 0 956.1 0.6 28
2017-11-23 21:00:00 16.1 3 Sur 18 Sudoeste 0 955.8 0.6 27
2017-11-23 20:00:00 16.5 6 Sur 17 Sudoeste 0 956 1 27
2017-11-23 19:00:00 15.7 0 Calma 11 Sur 0 955.5 0.9 27
2017-11-23 18:00:00 16.5 4 Sur 12 Sur 0 955.2 0.4 25
2017-11-23 17:00:00 18.4 6 Sudoeste 18 Sur 0 955 -0.2 22
2017-11-23 16:00:00 18.9 8 Sudoeste 21 Oeste 0 954.6 -1 22
2017-11-23 15:00:00 19.9 8 Sudoeste 19 Sudeste 0 954.8 -1 21
2017-11-23 14:00:00 19.6 8 Sudeste 21 Sur 0 955.2 -0.4 24
2017-11-23 13:00:00 18 8 Sur 18 Sur 0 955.6 0.5 26
2017-11-23 12:00:00 16.2 5 Sudeste 14 Sur 0 955.8 1.4 34
2017-11-23 11:00:00 15.4 7 Sudeste 17 Sur 0 955.6 1.8 38
2017-11-23 10:00:00 11.9 0 Calma 4 Sur 0 955.1 1.9 76
2017-11-23 09:00:00 9.7 3 Sudeste 6 Sudeste 0 954.4 1.5 88
2017-11-23 08:00:00 8.9 3 Sudeste 6 Este 0 953.8 1.1 89
2017-11-23 07:00:00 7.6 4 Sudeste 6 Este 0 953.2 0.6 89
2017-11-23 06:00:00 7.3 5 Este 7 Sudeste 0 952.9 0.6 86
2017-11-23 05:00:00 6.2 3 Este 5 Oeste 0 952.7 0.6 86
2017-11-23 04:00:00 6.3 4 Oeste 6 Oeste 0 952.6 0.3 77
2017-11-23 03:00:00 6.3 0 Calma 6 Noroeste 0 952.3 0.1 70
2017-11-23 02:00:00 7.1 2 Oeste 6 Oeste 0 952.1 -0.3 65
2017-11-23 01:00:00 7.9 2 Este 8 Este 0 952.3 0.1 61
2017-11-23 00:00:00 8.7 5 Este 8 Este 0 952.2 0.2 55
2017-11-22 23:00:00 8.3 2 Este 6 Sur 0 952.4 0.6 52
2017-11-22 22:00:00 9.2 0 Calma 6 Oeste 0 952.2 1 46
2017-11-22 21:00:00 9.9 4 Oeste 14 Sudoeste 0 952 0.9 43
2017-11-22 20:00:00 8.6 4 Este 10 Sur 0 951.8 0.8 42
2017-11-22 19:00:00 14.5 5 Sur 13 Sur 0 951.2 0.3 29
2017-11-22 18:00:00 16 4 Sudoeste 16 Sudoeste 0 951.1 0 27
2017-11-22 17:00:00 18.7 8 Sudoeste 22 Sudoeste 0 951 -0.8 24
2017-11-22 16:00:00 19.4 8 Sudoeste 21 Oeste 0 950.9 -1.3 25
2017-11-22 15:00:00 19.1 12 Oeste 23 Oeste 0 951.1 -1.5 25
2017-11-22 14:00:00 19.8 6 Sudoeste 20 Sudoeste 0 951.8 -1.3 25
2017-11-22 13:00:00 19.8 7 Sur 15 Sur 0 952.2 -1 26
2017-11-22 12:00:00 19.6 6 Sudeste 15 Sur 0 952.6 -0.1 29
2017-11-22 11:00:00 17.6 6 Sur 10 Sur 0 953.1 0.5 35
2017-11-22 10:00:00 11.2 2 Sudeste 8 Este 0 953.2 0.8 61
2017-11-22 09:00:00 4.5 5 Este 9 Este 0 952.7 0.4 79
2017-11-22 08:00:00 3.4 4 Sudeste 8 Este 0 952.6 -0.1 80
2017-11-22 07:00:00 4 6 Este 8 Este 0 952.4 -0.7 75
2017-11-22 06:00:00 3.7 6 Este 8 Este 0 952.3 -1.4 75
2017-11-22 05:00:00 3.9 5 Sudeste 8 Este 0 952.7 -1.4 73
2017-11-22 04:00:00 4.8 5 Sudeste 7 Sudeste 0 953.1 -1.4 68
2017-11-22 03:00:00 4.6 6 Este 8 Este 0 953.7 -1.1 66
2017-11-22 02:00:00 4.7 4 Sudeste 7 Este 0 954.1 -1 64
2017-11-22 01:00:00 5.7 5 Sudeste 7 Sudeste 0 954.5 -0.9 60
2017-11-22 00:00:00 5.2 4 Este 6 Este 0 954.8 -0.6 59
2017-11-21 23:00:00 5.5 4 Este 7 Este 0 955.1 -0.3 56
2017-11-21 22:00:00 6.9 4 Sudeste 6 Este 0 955.4 0.2 54
2017-11-21 21:00:00 7.6 4 Sudeste 8 Este 0 955.4 0.4 54
2017-11-21 20:00:00 7.5 3 Sudeste 6 Este 0 955.4 0.4 49
2017-11-21 19:00:00 10.1 3 Este 5 Sur 0 955.2 0 36
2017-11-21 18:00:00 15 2 Sudoeste 10 Noroeste 0 955 -0.5 24
2017-11-21 17:00:00 21.3 6 Oeste 13 Sudoeste 0 955 -1 19
2017-11-21 16:00:00 22.1 4 Sudoeste 14 Sudoeste 0 955.2 -1.5 18
2017-11-21 15:00:00 23 3 Sudoeste 12 Sur 0 955.5 -2 19
2017-11-21 14:00:00 22.1 5 Sur 14 Sudoeste 0 956 -1.7 20
2017-11-21 13:00:00 21.7 6 Sudeste 14 Sur 0 956.7 -1 22
2017-11-21 12:00:00 20.2 6 Sudeste 13 Este 0 957.5 0 24
2017-11-21 11:00:00 19 4 Sudeste 12 Sudeste 0 957.7 0.5 29
2017-11-21 10:00:00 12.8 0 Calma 7 Este 0 957.7 0.7 49
2017-11-21 09:00:00 6.8 5 Este 8 Este 0 957.5 0.4 60
2017-11-21 08:00:00 4.4 4 Este 9 Este 0 957.2 -0.1 64
2017-11-21 07:00:00 5 4 Sudeste 6 Sudeste 0 957 -0.5 64
2017-11-21 06:00:00 4.2 4 Sudeste 6 Este 0 957.1 -0.6 66
2017-11-21 05:00:00 4.6 4 Sudeste 8 Este 0 957.3 -0.3 65
2017-11-21 04:00:00 5.9 4 Sudeste 8 Sudeste 0 957.5 -0.3 64
2017-11-21 03:00:00 4.4 5 Este 7 Este 0 957.7 -0.2 67
2017-11-21 02:00:00 5.2 3 Sudeste 7 Este 0 957.6 -0.4 66
2017-11-21 01:00:00 5.7 4 Sudeste 6 Sudeste 0 957.8 -0.3 64
2017-11-21 00:00:00 6 4 Sudeste 6 Sudeste 0 957.9 0 63
2017-11-20 23:00:00 6.5 4 Sudeste 6 Sudeste 0 958 0.2 59
2017-11-20 22:00:00 6.8 4 Sudeste 6 Sudeste 0 958.1 0.8 56
2017-11-20 21:00:00 7.6 3 Sudeste 6 Sudeste 0 957.9 1 52
2017-11-20 20:00:00 8.4 4 Sudeste 5 Sudeste 0 957.8 1 48
2017-11-20 19:00:00 9.7 4 Este 6 Este 0 957.3 0.3 40
2017-11-20 18:00:00 15.6 3 Sudeste 10 Sudoeste 0 956.9 -0.4 25
2017-11-20 17:00:00 21 4 Sur 13 Sur 0 956.8 -0.7 21
2017-11-20 16:00:00 21.7 7 Sur 14 Sudoeste 0 957 -1.3 21
2017-11-20 15:00:00 22 7 Sur 14 Sudoeste 0 957.3 -1.4 20
2017-11-20 14:00:00 22.3 5 Sudoeste 12 Sur 0 957.5 -1.2 21
2017-11-20 13:00:00 21.4 5 Sudeste 14 Sur 0 958.3 0.1 22
2017-11-20 12:00:00 20.1 6 Este 14 Sudeste 0 958.7 0.8 26
2017-11-20 11:00:00 17.2 6 Este 12 Este 0 958.7 1.1 35
2017-11-20 10:00:00 13.6 6 Este 9 Este 0 958.2 0.8 48
2017-11-20 09:00:00 7.3 4 Sudeste 9 Este 0 957.9 0.7 66
2017-11-20 08:00:00 5.2 7 Este 11 Este 0 957.6 0.5 67
2017-11-20 07:00:00 4.8 7 Este 10 Este 0 957.4 0.5 74
2017-11-20 06:00:00 4.6 6 Este 9 Este 0 957.2 0.1 73
2017-11-20 05:00:00 5.1 3 Sudeste 5 Sudeste 0 957.1 0.1 72
2017-11-20 04:00:00 4.6 3 Sudeste 6 Este 0 956.9 -0.5 71
2017-11-20 03:00:00 5.9 4 Sudeste 8 Este 0 957.1 -0.5 68
2017-11-20 02:00:00 5.8 6 Este 8 Este 0 957 -0.5 65
2017-11-20 01:00:00 6.2 5 Este 6 Este 0 957.4 0.1 65
2017-11-20 00:00:00 6.1 4 Sudeste 6 Este 0 957.6 0.7 66
2017-11-19 23:00:00 7.3 4 Sudeste 7 Este 0 957.5 0.9 63
2017-11-19 22:00:00 7.3 5 Sudeste 8 Este 0 957.3 1.3 61
2017-11-19 21:00:00 7.3 4 Sudeste 7 Este 0 956.9 1.2 59
2017-11-19 20:00:00 8.3 3 Sudeste 5 Este 0 956.6 1.2 56
2017-11-19 19:00:00 9.9 2 Sudeste 5 Este 0 956 1 47
2017-11-19 18:00:00 16.4 5 Este 10 Sur 0 955.7 0.4 30
2017-11-19 17:00:00 19.9 6 Sur 10 Sur 0 955.4 -0.2 26
2017-11-19 16:00:00 21.1 5 Sur 14 Sur 0 955 -1.3 23
2017-11-19 15:00:00 21.2 8 Sur 19 Sur 0 955.3 -1.4 23
2017-11-19 14:00:00 21.9 4 Sudeste 14 Sur 0 955.6 -0.8 25
2017-11-19 13:00:00 20.2 4 Sudeste 13 Este 0 956.3 -0.1 28
2017-11-19 12:00:00 18.8 6 Este 13 Nordeste 0 956.7 0.7 32
2017-11-19 11:00:00 16.6 5 Sudeste 8 Sudeste 0 956.4 0.9 39
2017-11-19 10:00:00 12.5 5 Este 9 Este 0 956.4 1.3 55
2017-11-19 09:00:00 5.8 5 Este 6 Este 0 956 1.2 76
2017-11-19 08:00:00 4.1 4 Sudeste 7 Este 0 955.5 0.9 77
2017-11-19 07:00:00 4.3 4 Sudeste 7 Sudeste 0 955.1 0.3 77
2017-11-19 06:00:00 4.9 4 Sudeste 6 Este 0 954.8 0.2 75
2017-11-19 05:00:00 4.9 4 Sudeste 6 Sudeste 0 954.6 -0.1 74
2017-11-19 04:00:00 4.6 4 Sudeste 9 Este 0 954.8 -0.1 73
2017-11-19 03:00:00 5.6 5 Sudeste 7 Este 0 954.6 -0.4 71
2017-11-19 02:00:00 5.8 5 Sudeste 8 Este 0 954.7 -0.3 73
2017-11-19 01:00:00 6.7 5 Sudeste 8 Este 0 954.9 -0.1 71
2017-11-19 00:00:00 6.6 5 Este 8 Este 0 955 0.2 68
2017-11-18 23:00:00 6.8 7 Este 9 Sudeste 0 955 0.5 67
2017-11-18 22:00:00 7.1 5 Este 7 Sudeste 0 955 0.9 65
2017-11-18 21:00:00 7.4 4 Sudeste 7 Este 0 954.8 0.9 64
2017-11-18 20:00:00 8.2 4 Sudeste 7 Este 0 954.5 0.8 60
2017-11-18 19:00:00 9.6 4 Este 5 Este 0 954.1 0.7 51
2017-11-18 18:00:00 14.7 2 Sudoeste 9 Sudoeste 0 953.9 0.4 33
2017-11-18 17:00:00 19.8 5 Sudoeste 14 Oeste 0 953.7 -0.4 28
2017-11-18 16:00:00 20.9 4 Sudoeste 11 Sur 0 953.4 -1.2 26
2017-11-18 15:00:00 21.3 7 Sur 13 Sur 0 953.5 -1.7 27
2017-11-18 14:00:00 20.9 6 Sudoeste 18 Oeste 0 954.1 -1.1 28
2017-11-18 13:00:00 19.8 6 Oeste 12 Oeste 0 954.6 -0.7 28
2017-11-18 12:00:00 19.2 3 Oeste 9 Oeste 0 955.2 0.2 31
2017-11-18 11:00:00 16.4 2 Este 8 Este 0 955.2 0.6 36
2017-11-18 10:00:00 12.3 3 Sudeste 6 Este 0 955.3 0.9 56
2017-11-18 09:00:00 6.2 5 Sudeste 7 Este 0 955 0.7 72
2017-11-18 08:00:00 3.8 4 Este 8 Este 0 954.6 0.5 76
2017-11-18 07:00:00 4.6 4 Sudeste 8 Este 0 954.4 -0.1 73
2017-11-18 06:00:00 4.8 3 Sudeste 8 Sudeste 0 954.3 -0.3 71
2017-11-18 05:00:00 5.7 5 Este 9 Este 0 954.1 -0.6 69
2017-11-18 04:00:00 5.5 5 Este 12 Este 0 954.5 -0.5 69
2017-11-18 03:00:00 5.5 6 Este 8 Este 0 954.6 -0.5 68
2017-11-18 02:00:00 6.1 5 Este 7 Este 0 954.7 -0.5 67
2017-11-18 01:00:00 5.9 5 Este 9 Este 0 955 -0.1 67
2017-11-18 00:00:00 7.3 6 Sudeste 11 Este 0 955.1 0.4 65
2017-11-17 23:00:00 8.2 4 Sudeste 8 Sudeste 0 955.2 0.6 67
2017-11-17 22:00:00 7.6 4 Sudeste 6 Este 0 955.1 0.8 73
2017-11-17 21:00:00 8.1 4 Sudeste 6 Sudeste 0 954.7 0.7 70
2017-11-17 20:00:00 8.5 4 Este 6 Este 0 954.6 0.7 65
2017-11-17 19:00:00 9.7 3 Este 4 Este 0 954.3 0.5 55
2017-11-17 18:00:00 13.8 0 Calma 10 Sudoeste 0 954 -0.2 35
2017-11-17 17:00:00 20 5 Oeste 15 Oeste 0 953.9 -0.8 27
2017-11-17 16:00:00 21 6 Sur 14 Sur 0 953.8 -1.8 24
2017-11-17 15:00:00 20.8 9 Sur 15 Sur 0 954.2 -2.1 24
2017-11-17 14:00:00 20.5 5 Sudeste 11 Sudeste 0 954.7 -1.7 23
2017-11-17 13:00:00 20.4 5 Sudeste 12 Sur 0 955.6 -0.4 25
2017-11-17 12:00:00 18.5 4 Este 9 Este 0 956.3 0.5 29
2017-11-17 11:00:00 16.1 2 Oeste 5 Oeste 0 956.4 1 40
2017-11-17 10:00:00 11.2 0 Calma 5 Sudeste 0 956 1.1 62
2017-11-17 09:00:00 5.8 4 Este 8 Este 0 955.8 1 77
2017-11-17 08:00:00 4.1 5 Este 8 Este 0 955.4 0.2 78
2017-11-17 07:00:00 4.3 5 Este 8 Este 0 954.9 -0.4 77
2017-11-17 06:00:00 3.6 6 Este 8 Este 0 954.8 -0.6 76
2017-11-17 05:00:00 4.6 4 Sudeste 7 Este 0 955.2 -0.3 74
2017-11-17 04:00:00 5.1 5 Este 7 Este 0 955.3 -0.4 73
2017-11-17 03:00:00 5.1 4 Sudeste 8 Sudeste 0 955.4 -0.4 73
2017-11-17 02:00:00 4.6 5 Este 9 Este 0 955.5 -0.4 74
2017-11-17 01:00:00 5.7 5 Este 9 Este 0 955.7 0 74
2017-11-17 00:00:00 5.5 5 Este 8 Este 0 955.8 0.3 75
2017-11-16 23:00:00 5.5 0 Calma 8 Este 0 955.9 0.7 74
2017-11-16 22:00:00 6.6 3 Sudeste 8 Este 0 955.7 1 73
2017-11-16 21:00:00 7.2 4 Este 6 Este 0 955.5 1.2 69
2017-11-16 20:00:00 7.9 4 Este 5 Este 0 955.2 1.1 64
2017-11-16 19:00:00 9.3 3 Este 6 Noroeste 0 954.7 0.6 53
2017-11-16 18:00:00 15.8 3 Oeste 8 Sudoeste 0 954.3 0.2 32
2017-11-16 17:00:00 19 5 Sudoeste 13 Oeste 0 954.1 -0.4 29
2017-11-16 16:00:00 20.1 6 Sudoeste 15 Sudoeste 0 954.1 -1.2 27
2017-11-16 15:00:00 20.4 4 Oeste 14 Sudoeste 0 954.1 -2 26
2017-11-16 14:00:00 20.7 4 Sur 10 Sudoeste 0 954.5 -1.5 27
2017-11-16 13:00:00 18.7 5 Este 13 Este 0 955.3 -0.5 31
2017-11-16 12:00:00 17.2 6 Este 12 Este 0 956.1 0.9 36
2017-11-16 11:00:00 15.1 7 Este 10 Este 0 956 1.4 44
2017-11-16 10:00:00 11.7 4 Sudeste 7 Este 0 955.8 1.5 63
2017-11-16 09:00:00 6.6 6 Este 10 Este 0 955.2 1 83
2017-11-16 08:00:00 3.2 5 Este 7 Este 0 954.6 0.5 89
2017-11-16 07:00:00 4.2 6 Sudeste 8 Este 0 954.3 0 89
2017-11-16 06:00:00 4 3 Sudeste 10 Este 0 954.2 -0.3 88
2017-11-16 05:00:00 3.9 4 Sudeste 7 Este 0 954.1 -0.1 86
2017-11-16 04:00:00 4.7 4 Este 8 Este 0 954.3 -0.3 85
2017-11-16 03:00:00 4.3 5 Este 7 Este 0 954.5 -0.1 83
2017-11-16 02:00:00 4.8 4 Este 7 Este 0 954.2 -0.5 82
2017-11-16 01:00:00 5.4 4 Este 9 Sudeste 0 954.6 0.1 80
2017-11-16 00:00:00 5.2 4 Este 7 Este 0 954.6 0.2 78
2017-11-15 23:00:00 5.6 4 Este 5 Este 0 954.7 0.5 80
2017-11-15 22:00:00 6.3 4 Este 6 Sudeste 0 954.5 0.5 79
2017-11-15 21:00:00 7.1 4 Sudeste 6 Sudeste 0 954.4 0.9 76
2017-11-15 20:00:00 7.8 4 Sudeste 6 Este 0 954.2 0.5 69
2017-11-15 19:00:00 9.2 2 Sudeste 5 Sudeste 0 954 0.4 52
2017-11-15 18:00:00 12.8 0 Calma 10 Noroeste 0 953.5 -0.4 33
2017-11-15 17:00:00 18.2 6 Oeste 14 Oeste 0 953.7 -0.6 27
2017-11-15 16:00:00 18.7 7 Oeste 15 Oeste 0 953.6 -1.4 28
2017-11-15 15:00:00 18.2 6 Oeste 14 Oeste 0 953.9 -1.8 33
2017-11-15 14:00:00 17.5 3 Sudeste 12 Oeste 0 954.3 -1.7 35
2017-11-15 13:00:00 16.1 0 Calma 16 Sudoeste 0 955 -0.7 38
2017-11-15 12:00:00 15.6 0 Calma 12 Sudeste 0 955.7 0.3 44
2017-11-15 11:00:00 14.4 4 Sudeste 10 Nordeste 0 956 1 54
2017-11-15 10:00:00 10.9 7 Este 11 Este 0 955.7 1 70
2017-11-15 09:00:00 6.7 5 Este 8 Este 0 955.4 1 91
2017-11-15 08:00:00 6.5 6 Este 10 Este 0 955 0.9 92
2017-11-15 07:00:00 4 5 Sudeste 7 Este 0 954.7 0.7 91
2017-11-15 06:00:00 3.5 6 Este 11 Este 0 954.4 0.4 81
2017-11-15 05:00:00 3.1 5 Sudeste 9 Este 0 954.1 0.1 71
2017-11-15 04:00:00 4.1 4 Sudeste 10 Este 0 954 -0.1 61
2017-11-15 03:00:00 3 6 Este 9 Este 0 954 -0.3 64
2017-11-15 02:00:00 3.4 4 Este 8 Este 0 954 -0.1 63
2017-11-15 01:00:00 3.3 5 Este 10 Este 0 954.1 0.2 63
2017-11-15 00:00:00 4 4 Sudeste 7 Este 0 954.3 0.6 61